Time;durP1;ratioP1;P1;durP2;ratioP2;P2;SDS_P1;SDS_P2;PMS_P1;PMS_P2;Temp;Humidity;BMP_temperature;BMP_pressure;BME280_temperature;BME280_humidity;BME280_pressure;Samples;Min_cycle;Max_cycle;Signal;HPM_P1;HPM_P2
2022/10/23 00:05:27;;;;;;;2.93;1.50;;;;;;;;;;20862502;28;20761;-66
2022/10/23 00:15:29;;;;;;;3.07;1.40;;;;;;;;;;20849853;28;20218;-67
2022/10/23 00:25:32;;;;;;;2.57;1.10;;;;;;;;;;20866797;28;20315;-66
2022/10/23 00:35:34;;;;;;;2.03;0.93;;;;;;;;;;20855417;28;20222;-67
2022/10/23 00:45:36;;;;;;;1.70;0.80;;;;;;;;;;20857187;28;20210;-66
2022/10/23 00:55:40;;;;;;;1.13;0.73;;;;;;;;;;20880059;28;20237;-66
2022/10/23 01:05:49;;;;;;;2.40;0.93;;;;;;;;;;20907497;28;20759;-66
2022/10/23 01:16:17;;;;;;;0.97;0.60;;;;;;;;;;20862091;28;20229;-66
2022/10/23 01:26:28;;;;;;;1.30;0.83;;;;;;;;;;20875145;28;20268;-66
2022/10/23 01:36:33;;;;;;;0.93;0.60;;;16.90;99.90;;;;;;20898492;28;20712;-67
2022/10/23 01:46:36;;;;;;;2.00;0.70;;;;;;;;;;20859480;28;20210;-66
2022/10/23 01:56:42;;;;;;;1.20;0.77;;;;;;;;;;20860065;28;20299;-66
2022/10/23 02:06:45;;;;;;;1.50;0.70;;;;;;;;;;20878441;28;20229;-66
2022/10/23 02:16:47;;;;;;;1.07;0.73;;;;;;;;;;20857272;28;20246;-66
2022/10/23 02:26:56;;;;;;;1.03;0.73;;;14.00;99.90;;;;;;20856542;28;20676;-66
2022/10/23 02:36:58;;;;;;;1.60;0.77;;;;;;;;;;20871992;28;20275;-66
2022/10/23 02:47:33;;;;;;;2.57;0.90;;;14.00;99.90;;;;;;20838729;28;20210;-66
2022/10/23 02:57:39;;;;;;;2.00;1.10;;;;;;;;;;20853308;28;20283;-66
2022/10/23 03:07:41;;;;;;;3.10;0.87;;;;;;;;;;20868682;28;20311;-67
2022/10/23 03:17:46;;;;;;;1.73;0.80;;;;;;;;;;20869328;28;20225;-66
2022/10/23 03:27:50;;;;;;;0.90;0.50;;;;;;;;;;20836423;28;20201;-66
2022/10/23 03:37:52;;;;;;;0.80;0.53;;;;;;;;;;20850930;28;20252;-66
2022/10/23 03:47:55;;;;;;;0.87;0.80;;;;;;;;;;20830793;28;20700;-66
2022/10/23 03:57:57;;;;;;;2.23;1.07;;;;;;;;;;20835109;28;20229;-66
2022/10/23 04:07:59;;;;;;;1.80;1.10;;;;;;;;;;20898787;23;20346;-74
2022/10/23 04:18:01;;;;;;;3.93;0.80;;;;;;;;;;20884088;28;20210;-75
2022/10/23 04:28:03;;;;;;;2.47;0.80;;;;;;;;;;20878867;28;20827;-75
2022/10/23 04:38:11;;;;;;;1.40;0.70;;;;;;;;;;20879317;28;20221;-75
2022/10/23 04:48:13;;;;;;;1.33;0.70;;;;;;;;;;20887903;28;20295;-75
2022/10/23 04:58:34;;;;;;;5.63;0.70;;;;;;;;;;20828225;28;20211;-74
2022/10/23 05:08:37;;;;;;;0.90;0.67;;;;;;;;;;20870378;28;20292;-73
2022/10/23 05:19:10;;;;;;;1.50;0.93;;;;;;;;;;20855379;28;20234;-74
2022/10/23 05:29:13;;;;;;;3.27;1.80;;;;;;;;;;20868699;28;20210;-73
2022/10/23 05:39:15;;;;;;;2.17;0.90;;;;;;;;;;20886242;28;20283;-74
2022/10/23 05:49:17;;;;;;;2.70;0.90;;;;;;;;;;20887689;28;20210;-76
2022/10/23 05:59:39;;;;;;;1.00;0.67;;;;;;;;;;20848049;28;20234;-75
2022/10/23 06:09:56;;;;;;;0.93;0.77;;;;;;;;;;20870118;28;20282;-75
2022/10/23 06:20:01;;;;;;;1.20;0.63;;;;;;;;;;20886746;28;20700;-75
2022/10/23 06:30:07;;;;;;;1.13;0.60;;;;;;;;;;20884712;28;20271;-75
2022/10/23 06:40:09;;;;;;;1.27;0.80;;;;;;;;;;20884805;28;20280;-75
2022/10/23 06:50:31;;;;;;;0.67;0.53;;;;;;;;;;20893824;28;20613;-75
2022/10/23 07:00:39;;;;;;;3.27;0.60;;;;;;;;;;20856466;28;20580;-75
2022/10/23 07:10:41;;;;;;;1.73;1.10;;;;;;;;;;20856458;28;20202;-75
2022/10/23 07:20:47;;;;;;;1.93;0.90;;;;;;;;;;20858924;28;20499;-74
2022/10/23 07:30:58;;;;;;;1.40;0.73;;;;;;;;;;20858203;28;20255;-76
2022/10/23 07:41:10;;;;;;;0.90;0.70;;;13.40;99.90;;;;;;20866515;28;20205;-75
2022/10/23 07:51:13;;;;;;;1.20;0.87;;;;;;;;;;20868311;28;20609;-74
2022/10/23 08:01:21;;;;;;;2.13;0.90;;;;;;;;;;20892968;28;20757;-76
2022/10/23 08:11:26;;;;;;;0.97;0.60;;;;;;;;;;20880298;28;20218;-74
2022/10/23 08:21:28;;;;;;;1.37;0.70;;;;;;;;;;20882748;28;20343;-73
2022/10/23 08:31:30;;;;;;;0.90;0.50;;;;;;;;;;20885320;28;20262;-74
2022/10/23 08:41:58;;;;;;;0.70;0.50;;;;;;;;;;20864127;28;20226;-72
2022/10/23 08:52:07;;;;;;;1.50;0.87;;;;;;;;;;20878976;28;20306;-76
2022/10/23 09:02:22;;;;;;;2.07;0.80;;;;;;;;;;20881319;28;20705;-74
2022/10/23 09:12:25;;;;;;;1.00;0.70;;;;;;;;;;20908008;28;20688;-74
2022/10/23 09:22:27;;;;;;;1.53;0.97;;;15.70;99.90;;;;;;20892786;28;20681;-74
2022/10/23 09:32:33;;;;;;;1.17;0.90;;;;;;;;;;20908881;28;20577;-73
2022/10/23 09:42:35;;;;;;;0.50;0.50;;;;;;;;;;20890113;28;20279;-73
2022/10/23 09:52:38;;;;;;;2.03;0.70;;;16.20;99.90;;;;;;20889004;28;20234;-75
2022/10/23 10:02:40;;;;;;;1.17;0.60;;;;;;;;;;20890041;28;20218;-74
2022/10/23 10:12:55;;;;;;;0.90;0.50;;;;;;;;;;20896439;22;20224;-71
2022/10/23 10:23:03;;;;;;;0.87;0.47;;;15.90;99.90;;;;;;20887859;28;20957;-71
2022/10/23 10:33:14;;;;;;;0.63;0.40;;;;;;;;;;20871707;28;20233;-70
2022/10/23 10:43:29;;;;;;;2.10;0.70;;;;;;;;;;20855164;28;20206;-71
2022/10/23 10:53:30;;;;;;;1.20;0.50;;;;;;;;;;20854052;28;20251;-71
2022/10/23 11:03:38;;;;;;;1.30;0.43;;;;;;;;;;20853290;28;20842;-71
2022/10/23 11:13:41;;;;;;;0.40;0.37;;;;;;;;;;20885517;28;20283;-71
2022/10/23 11:23:58;;;;;;;0.40;0.40;;;16.90;99.90;;;;;;20867077;28;20251;-71
2022/10/23 11:34:11;;;;;;;0.60;0.30;;;;;;;;;;20882439;28;20291;-71
2022/10/23 11:44:33;;;;;;;1.50;0.50;;;17.30;99.90;;;;;;20867516;28;20225;-71
2022/10/23 11:54:35;;;;;;;0.73;0.40;;;;;;;;;;20836316;28;20299;-71
2022/10/23 12:04:45;;;;;;;0.80;0.50;;;;;;;;;;20866973;28;20210;-71
2022/10/23 12:14:48;;;;;;;0.83;0.40;;;;;;;;;;20867312;28;20229;-71
2022/10/23 12:25:05;;;;;;;0.43;0.40;;;;;;;;;;20882091;28;20654;-71
2022/10/23 12:35:15;;;;;;;0.57;0.33;;;18.50;99.90;;;;;;20866661;28;20272;-71
2022/10/23 12:45:25;;;;;;;1.00;0.70;;;;;;;;;;20878355;28;20286;-71
2022/10/23 12:56:10;;;;;;;1.63;0.40;;;19.00;99.90;;;;;;20896063;28;20926;-71
2022/10/23 13:06:13;;;;;;;4.83;0.57;;;;;;;;;;20876794;28;20713;-71
2022/10/23 13:16:26;;;;;;;1.13;0.30;;;19.00;99.90;;;;;;20846521;28;20288;-71
2022/10/23 13:26:44;;;;;;;2.03;0.40;;;;;;;;;;20863780;28;20224;-70
2022/10/23 13:36:54;;;;;;;1.70;0.50;;;18.40;99.90;;;;;;20844558;28;20226;-70
2022/10/23 13:46:56;;;;;;;2.47;0.50;;;;;;;;;;20859671;28;20214;-70
2022/10/23 13:56:58;;;;;;;0.30;0.30;;;;;;;;;;20874590;28;20247;-70
2022/10/23 14:07:04;;;;;;;0.67;0.33;;;;;;;;;;20870269;28;20211;-70
2022/10/23 14:17:07;;;;;;;0.97;0.47;;;;;;;;;;20876869;28;20343;-70
2022/10/23 14:27:11;;;;;;;1.77;0.80;;;;;;;;;;20827008;28;20331;-69
2022/10/23 14:37:12;;;;;;;1.03;0.60;;;;;;;;;;20842045;28;20218;-70
2022/10/23 14:47:14;;;;;;;0.70;0.50;;;;;;;;;;20826504;28;20350;-69
2022/10/23 14:57:19;;;;;;;0.57;0.40;;;;;;;;;;20870428;28;20285;-69
2022/10/23 15:07:22;;;;;;;0.80;0.40;;;;;;;;;;20878053;28;20778;-70
2022/10/23 15:17:23;;;;;;;0.90;0.50;;;;;;;;;;20842990;28;20276;-70
2022/10/23 15:27:26;;;;;;;0.93;0.40;;;;;;;;;;20830516;28;20771;-70
2022/10/23 15:37:27;;;;;;;0.73;0.40;;;;;;;;;;20754294;28;20223;-70
2022/10/23 15:47:30;;;;;;;6.67;3.47;;;;;;;;;;20771111;28;20223;-70
2022/10/23 15:57:32;;;;;;;2.63;1.40;;;;;;;;;;20770882;28;20574;-70
2022/10/23 16:07:34;;;;;;;1.80;1.17;;;;;;;;;;20781469;28;20662;-70
2022/10/23 16:17:36;;;;;;;0.93;0.70;;;;;;;;;;20882566;28;20241;-71
2022/10/23 16:27:38;;;;;;;2.40;1.27;;;;;;;;;;20925686;28;20741;-70
2022/10/23 16:37:40;;;;;;;2.53;1.37;;;;;;;;;;20863027;28;20231;-70
2022/10/23 16:47:49;;;;;;;2.53;1.60;;;;;;;;;;20847822;28;20229;-70
2022/10/23 16:57:52;;;;;;;0.50;0.43;;;17.60;99.90;;;;;;20874827;28;20227;-70
2022/10/23 17:07:55;;;;;;;1.17;0.50;;;;;;;;;;20891883;28;20218;-70
2022/10/23 17:17:57;;;;;;;1.23;0.70;;;;;;;;;;20886281;28;20776;-70
2022/10/23 17:27:59;;;;;;;2.80;0.80;;;;;;;;;;20855142;28;20230;-71
2022/10/23 17:38:01;;;;;;;5.97;0.90;;;;;;;;;;20796444;28;20230;-70
2022/10/23 17:48:13;;;;;;;3.23;0.80;;;;;;;;;;20768030;28;20203;-69
2022/10/23 17:58:15;;;;;;;0.87;0.50;;;;;;;;;;20832928;23;20601;-79
2022/10/23 18:08:17;;;;;;;3.80;1.00;;;;;;;;;;20860713;28;20225;-79
2022/10/23 18:18:19;;;;;;;1.00;0.60;;;;;;;;;;20847093;28;20276;-79
2022/10/23 18:28:20;;;;;;;1.90;0.77;;;;;;;;;;20869744;28;20721;-79
2022/10/23 18:38:22;;;;;;;1.17;0.63;;;;;;;;;;20872564;28;20218;-79
2022/10/23 18:48:24;;;;;;;3.03;1.13;;;;;;;;;;20913691;28;20571;-79
2022/10/23 18:58:25;;;;;;;2.80;1.00;;;;;;;;;;20869958;28;20218;-80
2022/10/23 19:08:43;;;;;;;3.10;1.60;;;;;;;;;;20876085;28;20620;-80
2022/10/23 19:18:48;;;;;;;2.87;1.17;;;;;;;;;;20891698;28;20236;-80
2022/10/23 19:28:51;;;;;;;2.10;0.93;;;16.70;99.90;;;;;;20910202;28;20198;-80
2022/10/23 19:38:53;;;;;;;2.07;0.80;;;;;;;;;;20870872;28;20283;-81
2022/10/23 19:48:54;;;;;;;1.63;0.70;;;;;;;;;;20915546;28;20213;-80
2022/10/23 19:58:56;;;;;;;1.70;0.70;;;;;;;;;;20902858;28;20225;-80
2022/10/23 20:08:58;;;;;;;1.77;0.83;;;;;;;;;;20892133;28;20240;-80
2022/10/23 20:19:01;;;;;;;1.53;0.90;;;;;;;;;;20900371;28;20243;-80
2022/10/23 20:29:03;;;;;;;2.57;1.07;;;;;;;;;;20868454;28;20214;-80
2022/10/23 20:39:07;;;;;;;6.17;1.20;;;16.50;99.90;;;;;;20875065;28;20221;-80
2022/10/23 20:49:10;;;;;;;3.57;0.97;;;16.40;99.90;;;;;;20912019;28;20213;-80
2022/10/23 20:59:13;;;;;;;1.60;0.90;;;;;;;;;;20907508;28;20213;-80
2022/10/23 21:09:15;;;;;;;2.77;0.67;;;;;;;;;;20881564;28;20616;-80
2022/10/23 21:19:16;;;;;;;1.30;0.80;;;;;;;;;;20907094;28;20638;-80
2022/10/23 21:29:18;;;;;;;1.43;0.63;;;;;;;;;;20916046;28;20205;-80
2022/10/23 21:39:20;;;;;;;1.97;1.00;;;;;;;;;;20900033;28;20303;-80
2022/10/23 21:49:22;;;;;;;3.47;0.97;;;;;;;;;;20877929;28;20267;-80
2022/10/23 21:59:25;;;;;;;1.90;0.70;;;16.50;99.90;;;;;;20894740;28;20260;-80
2022/10/23 22:09:27;;;;;;;1.83;0.87;;;;;;;;;;20892919;28;20263;-80
2022/10/23 22:19:29;;;;;;;2.30;0.97;;;;;;;;;;20874235;28;20218;-80
2022/10/23 22:29:31;;;;;;;2.20;0.87;;;;;;;;;;20874476;28;20202;-80
2022/10/23 22:39:33;;;;;;;3.27;0.90;;;;;;;;;;20907651;28;20233;-80
2022/10/23 22:49:35;;;;;;;4.73;1.10;;;;;;;;;;20890885;28;20210;-80
2022/10/23 22:59:36;;;;;;;2.63;1.07;;;;;;;;;;20889165;28;20209;-80
2022/10/23 23:09:42;;;;;;;3.60;0.93;;;16.20;99.90;;;;;;20890359;28;20210;-80
2022/10/23 23:19:44;;;;;;;3.47;1.00;;;;;;;;;;20908779;28;20260;-80
2022/10/23 23:29:46;;;;;;;2.87;1.10;;;;;;;;;;20882526;28;20218;-80
2022/10/23 23:39:48;;;;;;;3.20;1.20;;;;;;;;;;20909990;28;20770;-80
2022/10/23 23:49:49;;;;;;;1.17;0.57;;;;;;;;;;20892128;28;20256;-80
2022/10/23 23:59:51;;;;;;;3.03;0.93;;;;;;;;;;20907443;28;20218;-80
